Time,TemperatureF,DewpointF,PressureIn,WindDirection,WindDirectionDegrees,WindSpeedMPH,WindSpeedGustMPH,Humidity,HourlyPrecipIn,Conditions,Clouds,dailyrainin,SoftwareType,DateUTC
2013-01-23 00:04:00,13.6,-4.0,30.16,WNW,285,3.0,8.0,46,0.00,,,0.00,weatherlink.com 1.10,2013-01-23 05:04:00,
2013-01-23 00:19:00,13.4,-4.0,30.16,West,279,2.0,8.0,45,0.00,,,0.00,weatherlink.com 1.10,2013-01-23 05:19:00,
2013-01-23 00:34:00,13.2,-5.0,30.16,West,267,1.0,10.0,45,0.00,,,0.00,weatherlink.com 1.10,2013-01-23 05:34:00,
2013-01-23 00:49:00,13.0,-5.0,30.16,WNW,303,4.0,8.0,44,0.00,,,0.00,weatherlink.com 1.10,2013-01-23 05:49:00,
2013-01-23 01:04:00,12.8,-5.0,30.16,WNW,286,0.0,5.0,46,0.00,,,0.00,weatherlink.com 1.10,2013-01-23 06:04:00,
2013-01-23 01:19:00,12.6,-4.0,30.16,SW,226,4.0,6.0,47,0.00,,,0.00,weatherlink.com 1.10,2013-01-23 06:19:00,
2013-01-23 01:34:00,12.5,-4.0,30.17,WSW,257,3.0,10.0,47,0.00,,,0.00,weatherlink.com 1.10,2013-01-23 06:34:00,
2013-01-23 01:49:00,12.5,-4.0,30.17,WSW,250,0.0,11.0,47,0.00,,,0.00,weatherlink.com 1.10,2013-01-23 06:49:00,
2013-01-23 02:04:00,12.4,-4.0,30.17,West,264,2.0,6.0,48,0.00,,,0.00,weatherlink.com 1.10,2013-01-23 07:04:00,
2013-01-23 02:19:00,12.3,-4.0,30.18,West,275,4.0,7.0,49,0.00,,,0.00,weatherlink.com 1.10,2013-01-23 07:19:00,
2013-01-23 02:34:00,12.2,-4.0,30.18,West,265,1.0,12.0,49,0.00,,,0.00,weatherlink.com 1.10,2013-01-23 07:34:00,
2013-01-23 02:49:00,12.3,-4.0,30.18,West,269,5.0,6.0,49,0.00,,,0.00,weatherlink.com 1.10,2013-01-23 07:49:00,
2013-01-23 03:04:00,12.2,-3.0,30.18,West,263,3.0,9.0,50,0.00,,,0.00,weatherlink.com 1.10,2013-01-23 08:04:00,
2013-01-23 03:20:00,12.1,-3.0,30.18,WNW,285,0.0,8.0,51,0.00,,,0.00,weatherlink.com 1.10,2013-01-23 08:20:00,
2013-01-23 03:35:00,12.0,-3.0,30.18,West,265,2.0,8.0,52,0.00,,,0.00,weatherlink.com 1.10,2013-01-23 08:35:00,
2013-01-23 03:50:00,11.9,-3.0,30.18,WNW,284,4.0,7.0,52,0.00,,,0.00,weatherlink.com 1.10,2013-01-23 08:50:00,
2013-01-23 04:05:00,11.8,-2.0,30.18,WNW,286,0.0,8.0,54,0.00,,,0.00,weatherlink.com 1.10,2013-01-23 09:05:00,
2013-01-23 04:20:00,11.6,-2.0,30.18,West,269,1.0,9.0,54,0.00,,,0.00,weatherlink.com 1.10,2013-01-23 09:20:00,
2013-01-23 04:35:00,11.6,-2.0,30.18,WNW,284,3.0,6.0,55,0.00,,,0.00,weatherlink.com 1.10,2013-01-23 09:35:00,
2013-01-23 04:50:00,11.4,-2.0,30.18,West,275,1.0,7.0,55,0.00,,,0.00,weatherlink.com 1.10,2013-01-23 09:50:00,
2013-01-23 05:05:00,11.3,-2.0,30.18,West,266,2.0,5.0,56,0.00,,,0.00,weatherlink.com 1.10,2013-01-23 10:05:00,
2013-01-23 05:20:00,11.2,-1.0,30.18,NW,317,2.0,7.0,57,0.00,,,0.00,weatherlink.com 1.10,2013-01-23 10:20:00,
2013-01-23 05:35:00,11.2,-1.0,30.18,WNW,291,3.0,7.0,57,0.00,,,0.00,weatherlink.com 1.10,2013-01-23 10:35:00,
2013-01-23 05:50:00,11.2,-1.0,30.19,West,273,4.0,9.0,58,0.00,,,0.00,weatherlink.com 1.10,2013-01-23 10:50:00,
2013-01-23 06:05:00,11.0,-1.0,30.19,WNW,286,2.0,9.0,58,0.00,,,0.00,weatherlink.com 1.10,2013-01-23 11:05:00,
2013-01-23 06:20:00,10.9,-1.0,30.19,West,275,0.0,7.0,59,0.00,,,0.00,weatherlink.com 1.10,2013-01-23 11:20:00,
2013-01-23 06:35:00,10.9,-1.0,30.19,NW,325,2.0,6.0,59,0.00,,,0.00,weatherlink.com 1.10,2013-01-23 11:35:00,
2013-01-23 06:51:00,10.8,-1.0,30.19,WSW,247,2.0,8.0,60,0.00,,,0.00,weatherlink.com 1.10,2013-01-23 11:51:00,
2013-01-23 07:06:00,10.8,-1.0,30.20,West,268,4.0,8.0,60,0.00,,,0.00,weatherlink.com 1.10,2013-01-23 12:06:00,
2013-01-23 07:21:00,10.7,0.0,30.20,West,264,4.0,6.0,62,0.00,,,0.00,weatherlink.com 1.10,2013-01-23 12:21:00,
2013-01-23 07:36:00,10.8,0.0,30.20,SW,229,5.0,8.0,62,0.00,,,0.00,weatherlink.com 1.10,2013-01-23 12:36:00,
2013-01-23 07:51:00,11.1,0.0,30.20,WNW,284,2.0,8.0,61,0.00,,,0.00,weatherlink.com 1.10,2013-01-23 12:51:00,
2013-01-23 08:06:00,11.8,1.0,30.20,WSW,257,0.0,7.0,61,0.00,,,0.00,weatherlink.com 1.10,2013-01-23 13:06:00,
2013-01-23 08:21:00,12.4,1.0,30.20,WSW,238,1.0,9.0,60,0.00,,,0.00,weatherlink.com 1.10,2013-01-23 13:21:00,
2013-01-23 08:36:00,12.9,1.0,30.20,WSW,237,3.0,10.0,58,0.00,,,0.00,weatherlink.com 1.10,2013-01-23 13:36:00,
2013-01-23 08:51:00,13.7,1.0,30.20,WNW,298,3.0,11.0,57,0.00,,,0.00,weatherlink.com 1.10,2013-01-23 13:51:00,
2013-01-23 09:06:00,14.8,2.0,30.21,West,279,3.0,13.0,57,0.00,,,0.00,weatherlink.com 1.10,2013-01-23 14:06:00,
2013-01-23 09:21:00,15.6,2.0,30.21,WSW,245,3.0,10.0,54,0.00,,,0.00,weatherlink.com 1.10,2013-01-23 14:21:00,
2013-01-23 09:36:00,15.9,2.0,30.21,SW,227,3.0,11.0,54,0.00,,,0.00,weatherlink.com 1.10,2013-01-23 14:36:00,
2013-01-23 09:51:00,16.4,1.0,30.21,West,261,3.0,10.0,51,0.00,,,0.00,weatherlink.com 1.10,2013-01-23 14:51:00,
2013-01-23 10:07:00,17.2,1.0,30.21,West,267,1.0,8.0,49,0.00,,,0.00,weatherlink.com 1.10,2013-01-23 15:07:00,
2013-01-23 10:37:00,17.9,0.0,30.21,West,278,4.0,13.0,46,0.00,,,0.00,weatherlink.com 1.10,2013-01-23 15:37:00,
2013-01-23 10:52:00,18.6,0.0,30.20,WSW,256,6.0,12.0,44,0.00,,,0.00,weatherlink.com 1.10,2013-01-23 15:52:00,
2013-01-23 11:07:00,19.0,-1.0,30.20,West,265,4.0,14.0,42,0.00,,,0.00,weatherlink.com 1.10,2013-01-23 16:07:00,
2013-01-23 11:22:00,18.4,-1.0,30.19,West,263,6.0,10.0,42,0.00,,,0.00,weatherlink.com 1.10,2013-01-23 16:22:00,
2013-01-23 11:37:00,19.4,0.0,30.18,WNW,288,3.0,16.0,42,0.00,,,0.00,weatherlink.com 1.10,2013-01-23 16:37:00,
2013-01-23 11:52:00,19.7,-1.0,30.17,West,278,6.0,10.0,41,0.00,,,0.00,weatherlink.com 1.10,2013-01-23 16:52:00,
2013-01-23 12:07:00,18.9,-1.0,30.16,WNW,288,3.0,11.0,41,0.00,,,0.00,weatherlink.com 1.10,2013-01-23 17:07:00,
2013-01-23 12:22:00,18.7,-2.0,30.16,West,280,7.0,12.0,40,0.00,,,0.00,weatherlink.com 1.10,2013-01-23 17:22:00,
2013-01-23 12:37:00,18.9,-1.0,30.15,West,261,6.0,10.0,42,0.00,,,0.00,weatherlink.com 1.10,2013-01-23 17:37:00,
2013-01-23 12:52:00,19.4,-2.0,30.14,West,259,4.0,13.0,39,0.00,,,0.00,weatherlink.com 1.10,2013-01-23 17:52:00,
2013-01-23 13:07:00,19.1,-1.0,30.14,West,261,6.0,9.0,41,0.00,,,0.00,weatherlink.com 1.10,2013-01-23 18:07:00,
2013-01-23 13:22:00,19.0,-1.0,30.13,WNW,288,3.0,16.0,42,0.00,,,0.00,weatherlink.com 1.10,2013-01-23 18:22:00,
2013-01-23 13:38:00,19.1,0.0,30.13,West,279,4.0,10.0,43,0.00,,,0.00,weatherlink.com 1.10,2013-01-23 18:38:00,
2013-01-23 13:53:00,18.7,1.0,30.13,SW,232,6.0,8.0,45,0.00,,,0.00,weatherlink.com 1.10,2013-01-23 18:53:00,
2013-01-23 14:08:00,18.8,1.0,30.13,West,278,1.0,8.0,46,0.00,,,0.00,weatherlink.com 1.10,2013-01-23 19:08:00,
2013-01-23 14:23:00,18.9,0.0,30.13,North,355,3.0,8.0,44,0.00,,,0.00,weatherlink.com 1.10,2013-01-23 19:23:00,
2013-01-23 14:38:00,19.5,-1.0,30.13,WNW,288,5.0,14.0,41,0.00,,,0.00,weatherlink.com 1.10,2013-01-23 19:38:00,
2013-01-23 14:53:00,19.2,-1.0,30.13,West,275,2.0,9.0,42,0.00,,,0.00,weatherlink.com 1.10,2013-01-23 19:53:00,
2013-01-23 15:08:00,18.8,0.0,30.13,WSW,246,3.0,8.0,43,0.00,,,0.00,weatherlink.com 1.10,2013-01-23 20:08:00,
2013-01-23 15:23:00,19.1,0.0,30.13,NW,309,1.0,10.0,44,0.00,,,0.00,weatherlink.com 1.10,2013-01-23 20:23:00,
2013-01-23 15:38:00,19.5,-1.0,30.13,North,355,6.0,9.0,41,0.00,,,0.00,weatherlink.com 1.10,2013-01-23 20:38:00,
2013-01-23 15:53:00,19.5,-1.0,30.13,West,277,4.0,9.0,41,0.00,,,0.00,weatherlink.com 1.10,2013-01-23 20:53:00,
2013-01-23 16:08:00,18.7,-1.0,30.13,West,278,0.0,7.0,43,0.00,,,0.00,weatherlink.com 1.10,2013-01-23 21:08:00,
2013-01-23 16:23:00,18.4,-1.0,30.14,West,267,4.0,8.0,43,0.00,,,0.00,weatherlink.com 1.10,2013-01-23 21:23:00,
2013-01-23 16:38:00,18.1,-1.0,30.14,WNW,290,1.0,9.0,43,0.00,,,0.00,weatherlink.com 1.10,2013-01-23 21:38:00,
2013-01-23 16:53:00,17.9,-1.0,30.14,West,268,0.0,7.0,43,0.00,,,0.00,weatherlink.com 1.10,2013-01-23 21:53:00,
2013-01-23 17:09:00,17.6,-1.0,30.14,WNW,287,5.0,9.0,44,0.00,,,0.00,weatherlink.com 1.10,2013-01-23 22:09:00,
2013-01-23 17:24:00,17.4,-2.0,30.14,West,281,0.0,8.0,42,0.00,,,0.00,weatherlink.com 1.10,2013-01-23 22:24:00,
2013-01-23 17:39:00,17.2,-2.0,30.15,NNW,332,1.0,7.0,42,0.00,,,0.00,weatherlink.com 1.10,2013-01-23 22:39:00,
2013-01-23 17:54:00,16.9,-2.0,30.16,WSW,255,2.0,7.0,43,0.00,,,0.00,weatherlink.com 1.10,2013-01-23 22:54:00,
2013-01-23 18:09:00,16.8,-2.0,30.16,WSW,253,0.0,5.0,43,0.00,,,0.00,weatherlink.com 1.10,2013-01-23 23:09:00,
2013-01-23 18:24:00,16.5,-2.0,30.16,West,277,1.0,3.0,44,0.00,,,0.00,weatherlink.com 1.10,2013-01-23 23:24:00,
2013-01-23 18:39:00,16.1,-1.0,30.16,West,271,1.0,2.0,46,0.00,,,0.00,weatherlink.com 1.10,2013-01-23 23:39:00,
2013-01-23 18:54:00,15.8,-1.0,30.16,West,272,0.0,4.0,47,0.00,,,0.00,weatherlink.com 1.10,2013-01-23 23:54:00,
2013-01-23 19:09:00,15.6,-1.0,30.16,WNW,302,1.0,2.0,49,0.00,,,0.00,weatherlink.com 1.10,2013-01-24 00:09:00,
2013-01-23 19:24:00,15.2,0.0,30.16,West,281,0.0,1.0,51,0.00,,,0.00,weatherlink.com 1.10,2013-01-24 00:24:00,
2013-01-23 19:39:00,14.6,0.0,30.16,West,281,0.0,0.0,53,0.00,,,0.00,weatherlink.com 1.10,2013-01-24 00:39:00,
2013-01-23 19:54:00,14.0,0.0,30.16,West,281,0.0,1.0,55,0.00,,,0.00,weatherlink.com 1.10,2013-01-24 00:54:00,
2013-01-23 20:09:00,13.5,1.0,30.16,West,281,0.0,0.0,57,0.00,,,0.00,weatherlink.com 1.10,2013-01-24 01:09:00,
2013-01-23 20:25:00,12.9,1.0,30.15,West,281,0.0,0.0,60,0.00,,,0.00,weatherlink.com 1.10,2013-01-24 01:25:00,
2013-01-23 20:40:00,12.4,2.0,30.15,West,281,0.0,0.0,63,0.00,,,0.00,weatherlink.com 1.10,2013-01-24 01:40:00,
2013-01-23 20:55:00,11.9,2.0,30.15,West,281,0.0,0.0,64,0.00,,,0.00,weatherlink.com 1.10,2013-01-24 01:55:00,
2013-01-23 21:10:00,11.5,2.0,30.15,West,281,0.0,0.0,66,0.00,,,0.00,weatherlink.com 1.10,2013-01-24 02:10:00,
2013-01-23 21:25:00,11.3,2.0,30.16,West,281,0.0,0.0,67,0.00,,,0.00,weatherlink.com 1.10,2013-01-24 02:25:00,
2013-01-23 21:40:00,10.8,2.0,30.16,West,281,0.0,0.0,68,0.00,,,0.00,weatherlink.com 1.10,2013-01-24 02:40:00,
2013-01-23 21:55:00,10.5,3.0,30.16,West,281,0.0,0.0,71,0.00,,,0.00,weatherlink.com 1.10,2013-01-24 02:55:00,
2013-01-23 22:10:00,10.4,3.0,30.16,West,281,0.0,0.0,72,0.00,,,0.00,weatherlink.com 1.10,2013-01-24 03:10:00,
2013-01-23 22:25:00,10.1,3.0,30.16,West,281,0.0,0.0,73,0.00,,,0.00,weatherlink.com 1.10,2013-01-24 03:25:00,
2013-01-23 22:40:00,10.1,4.0,30.16,West,281,0.0,0.0,75,0.00,,,0.00,weatherlink.com 1.10,2013-01-24 03:40:00,
2013-01-23 22:55:00,10.0,4.0,30.15,West,281,0.0,0.0,76,0.00,,,0.00,weatherlink.com 1.10,2013-01-24 03:55:00,
2013-01-23 23:10:00,10.0,4.0,30.15,West,281,0.0,0.0,77,0.00,,,0.00,weatherlink.com 1.10,2013-01-24 04:10:00,
2013-01-23 23:25:00,10.2,5.0,30.15,West,281,0.0,0.0,78,0.00,,,0.00,weatherlink.com 1.10,2013-01-24 04:25:00,
2013-01-23 23:40:00,10.9,5.0,30.14,West,281,0.0,0.0,78,0.00,,,0.00,weatherlink.com 1.10,2013-01-24 04:40:00,
2013-01-23 23:56:00,11.7,6.0,30.14,West,281,0.0,0.0,76,0.00,,,0.00,weatherlink.com 1.10,2013-01-24 04:56:00,